Řízení letového provozu České republiky
Letiste: LKNA Aktualizace: 28.09.2016 03:06:06  UTC
 METAR LKNA 28.09. 03:00 ...
METAR LKNA 280300Z 35004KT CAVOK 10/07 Q1028=
 TAF LKNA 27.09. 17:00 ...
TAF LKNA 271700Z 2718/2818 21004KT CAVOK      BECMG 2800/2802 36004KT=